Time;durP1;ratioP1;P1;durP2;ratioP2;P2;SDS_P1;SDS_P2;PMS_P1;PMS_P2;Temp;Humidity;BMP_temperature;BMP_pressure;BME280_temperature;BME280_humidity;BME280_pressure;Samples;Min_cycle;Max_cycle;Signal;HPM_P1;HPM_P2
2023/05/25 00:01:58;;;;;;;;;;;9.50;99.90;;;;;;5030908;28;19925;-66
2023/05/25 00:04:25;;;;;;;;;;;9.60;99.90;;;;;;5033497;28;19921;-66
2023/05/25 00:06:52;;;;;;;;;;;9.60;99.90;;;;;;5029170;28;19921;-66
2023/05/25 00:09:17;;;;;;;;;;;9.60;99.90;;;;;;5033667;28;20334;-65
2023/05/25 00:11:43;;;;;;;;;;;9.60;99.90;;;;;;5033131;28;19921;-66
2023/05/25 00:14:09;;;;;;;;;;;9.60;99.90;;;;;;5034483;28;19932;-65
2023/05/25 00:16:36;;;;;;;;;;;9.60;99.90;;;;;;5026519;28;19951;-66
2023/05/25 00:19:03;;;;;;;;;;;9.50;99.90;;;;;;5029819;28;20391;-66
2023/05/25 00:21:29;;;;;;;;;;;9.40;99.90;;;;;;5034388;28;19991;-66
2023/05/25 00:23:54;;;;;;;;;;;9.40;99.90;;;;;;5023833;28;20403;-66
2023/05/25 00:26:20;;;;;;;;;;;9.40;99.90;;;;;;5032536;28;19944;-66
2023/05/25 00:28:45;;;;;;;;;;;9.40;99.90;;;;;;5033654;28;19982;-66
2023/05/25 00:31:11;;;;;;;;;;;9.40;99.90;;;;;;5026536;28;19968;-66
2023/05/25 00:33:36;;;;;;;;;;;9.40;99.90;;;;;;5033662;28;20510;-66
2023/05/25 00:36:02;;;;;;;;;;;9.40;99.90;;;;;;5032723;28;19928;-66
2023/05/25 00:38:27;;;;;;;;;;;9.40;99.90;;;;;;5032908;28;20018;-65
2023/05/25 00:40:54;;;;;;;;;;;9.30;99.90;;;;;;5025028;28;20075;-66
2023/05/25 00:43:19;;;;;;;;;;;9.10;99.90;;;;;;5030935;28;19936;-66
2023/05/25 00:45:45;;;;;;;;;;;9.00;99.90;;;;;;5034367;28;19929;-66
2023/05/25 00:48:10;;;;;;;;;;;9.00;99.90;;;;;;5031031;28;19928;-66
2023/05/25 00:50:36;;;;;;;;;;;9.00;99.90;;;;;;5024546;28;19930;-65
2023/05/25 00:53:02;;;;;;;;;;;8.90;99.90;;;;;;5033652;28;19983;-65
2023/05/25 00:55:30;;;;;;;;;;;8.90;99.90;;;;;;5031264;28;19921;-66
2023/05/25 00:57:56;;;;;;;;;;;9.00;99.90;;;;;;5031886;28;19929;-66
2023/05/25 01:00:22;;;;;;;;;;;9.00;99.90;;;;;;5034717;28;19921;-66
2023/05/25 01:02:51;;;;;;;;;;;9.00;99.90;;;;;;5052590;28;19924;-65
2023/05/25 01:05:20;;;;;;;;;;;9.00;99.90;;;;;;5040579;28;19921;-66
2023/05/25 01:07:45;;;;;;;;;;;9.00;99.90;;;;;;5025876;28;19948;-66
2023/05/25 01:10:13;;;;;;;;;;;9.00;99.90;;;;;;5033053;28;20367;-66
2023/05/25 01:12:39;;;;;;;;;;;9.00;99.90;;;;;;5027604;28;20016;-66
2023/05/25 01:15:05;;;;;;;;;;;9.00;99.90;;;;;;5031758;28;19975;-65
2023/05/25 01:17:31;;;;;;;;;;;8.90;99.90;;;;;;5033023;28;20375;-65
2023/05/25 01:19:57;;;;;;;;;;;8.80;99.90;;;;;;5033559;28;19921;-65
2023/05/25 01:22:25;;;;;;;;;;;8.80;99.90;;;;;;5021184;28;20303;-66
2023/05/25 01:24:53;;;;;;;;;;;8.70;99.90;;;;;;5026443;28;20413;-66
2023/05/25 01:27:18;;;;;;;;;;;8.70;99.90;;;;;;5032956;28;19928;-65
2023/05/25 01:29:44;;;;;;;;;;;8.70;99.90;;;;;;5024683;28;19922;-66
2023/05/25 01:32:11;;;;;;;;;;;8.60;99.90;;;;;;5051516;22;19932;-66
2023/05/25 01:34:38;;;;;;;;;;;8.60;99.90;;;;;;5050063;28;19935;-67
2023/05/25 01:37:04;;;;;;;;;;;8.60;99.90;;;;;;5052076;28;19921;-67
2023/05/25 01:39:29;;;;;;;;;;;8.60;99.90;;;;;;5046375;28;19921;-66
2023/05/25 01:41:55;;;;;;;;;;;8.50;99.90;;;;;;5038566;28;19920;-67
2023/05/25 01:44:20;;;;;;;;;;;8.50;99.90;;;;;;5041839;28;19929;-67
2023/05/25 01:46:48;;;;;;;;;;;8.50;99.90;;;;;;5034218;28;19969;-66
2023/05/25 01:49:22;;;;;;;;;;;8.50;99.90;;;;;;5050947;28;19973;-66
2023/05/25 01:51:54;;;;;;;;;;;8.40;99.90;;;;;;5039309;28;19928;-66
2023/05/25 01:54:21;;;;;;;;;;;8.30;99.90;;;;;;5032600;28;19925;-65
2023/05/25 01:56:48;;;;;;;;;;;8.30;99.90;;;;;;5042312;28;19925;-66
2023/05/25 01:59:15;;;;;;;;;;;8.20;99.90;;;;;;5051062;28;19921;-66
2023/05/25 02:01:41;;;;;;;;;;;8.10;99.90;;;;;;5052473;28;19960;-66
2023/05/25 02:04:07;;;;;;;;;;;8.10;99.90;;;;;;5045462;28;20418;-66
2023/05/25 02:06:34;;;;;;;;;;;8.20;99.90;;;;;;5048225;28;19968;-66
2023/05/25 02:09:00;;;;;;;;;;;8.20;99.90;;;;;;5032562;28;20035;-66
2023/05/25 02:11:26;;;;;;;;;;;8.20;99.90;;;;;;5030946;28;20373;-66
2023/05/25 02:13:52;;;;;;;;;;;8.20;99.90;;;;;;5051186;28;19990;-67
2023/05/25 02:16:17;;;;;;;;;;;8.10;99.90;;;;;;5068015;28;20394;-66
2023/05/25 02:18:43;;;;;;;;;;;8.10;99.90;;;;;;5069899;28;19920;-65
2023/05/25 02:21:09;;;;;;;;;;;8.10;99.90;;;;;;5042033;28;19920;-66
2023/05/25 02:23:35;;;;;;;;;;;8.10;99.90;;;;;;5051898;28;19921;-66
2023/05/25 02:26:00;;;;;;;;;;;8.10;99.90;;;;;;5052413;28;19925;-66
2023/05/25 02:28:25;;;;;;;;;;;8.00;99.90;;;;;;5044446;28;20387;-66
2023/05/25 02:30:51;;;;;;;;;;;8.00;99.90;;;;;;5051787;28;19974;-66
2023/05/25 02:33:17;;;;;;;;;;;8.00;99.90;;;;;;5059858;28;19971;-66
2023/05/25 02:35:43;;;;;;;;;;;8.00;99.90;;;;;;5046677;28;20028;-66
2023/05/25 02:38:08;;;;;;;;;;;8.00;99.90;;;;;;5037900;28;19972;-66
2023/05/25 02:40:34;;;;;;;;;;;7.90;99.90;;;;;;5051088;28;19921;-66
2023/05/25 02:42:59;;;;;;;;;;;7.80;99.90;;;;;;5050817;28;19921;-65
2023/05/25 02:45:25;;;;;;;;;;;7.80;99.90;;;;;;5046767;28;19926;-66
2023/05/25 02:47:50;;;;;;;;;;;7.80;99.90;;;;;;5056505;28;19921;-66
2023/05/25 02:50:16;;;;;;;;;;;7.70;99.90;;;;;;5051535;28;19924;-66
2023/05/25 02:52:41;;;;;;;;;;;7.80;99.90;;;;;;5048019;28;19929;-65
2023/05/25 02:55:12;;;;;;;;;;;7.70;99.90;;;;;;5048923;28;20425;-65
2023/05/25 02:57:37;;;;;;;;;;;7.70;99.90;;;;;;5038488;28;19925;-65
2023/05/25 03:00:03;;;;;;;;;;;7.80;99.90;;;;;;5045603;28;19975;-65
2023/05/25 03:02:29;;;;;;;;;;;7.80;99.90;;;;;;5041111;28;20395;-65
2023/05/25 03:04:55;;;;;;;;;;;7.80;99.90;;;;;;5058269;28;19931;-65
2023/05/25 03:07:20;;;;;;;;;;;7.80;99.90;;;;;;5032533;28;20394;-65
2023/05/25 03:09:46;;;;;;;;;;;7.70;99.90;;;;;;5032283;28;19927;-65
2023/05/25 03:12:11;;;;;;;;;;;7.70;99.90;;;;;;5044046;28;20374;-66
2023/05/25 03:14:37;;;;;;;;;;;7.70;99.90;;;;;;5043207;28;19932;-66
2023/05/25 03:17:02;;;;;;;;;;;7.80;99.90;;;;;;5051482;28;19921;-66
2023/05/25 03:19:28;;;;;;;;;;;7.80;99.90;;;;;;5034716;28;19921;-66
2023/05/25 03:21:53;;;;;;;;;;;7.70;99.90;;;;;;5050022;28;20331;-66
2023/05/25 03:24:19;;;;;;;;;;;7.70;99.90;;;;;;5067590;28;19970;-65
2023/05/25 03:26:44;;;;;;;;;;;7.60;99.90;;;;;;5049670;28;19920;-66
2023/05/25 03:29:10;;;;;;;;;;;7.60;99.90;;;;;;5057814;28;19927;-66
2023/05/25 03:31:35;;;;;;;;;;;7.60;99.90;;;;;;5049749;28;20047;-66
2023/05/25 03:34:02;;;;;;;;;;;7.60;99.90;;;;;;5044193;28;19921;-66
2023/05/25 03:36:29;;;;;;;;;;;7.60;99.90;;;;;;5050875;28;19928;-66
2023/05/25 03:38:55;;;;;;;;;;;7.60;99.90;;;;;;5036945;28;19975;-66
2023/05/25 03:41:20;;;;;;;;;;;7.50;99.90;;;;;;5030389;28;20000;-66
2023/05/25 03:43:46;;;;;;;;;;;7.50;99.90;;;;;;5038436;28;20287;-66
2023/05/25 03:46:11;;;;;;;;;;;7.40;99.90;;;;;;5058184;28;19924;-65
2023/05/25 03:48:37;;;;;;;;;;;7.40;99.90;;;;;;5034353;28;19924;-66
2023/05/25 03:51:02;;;;;;;;;;;7.40;99.90;;;;;;5050831;28;19921;-66
2023/05/25 03:53:28;;;;;;;;;;;7.30;99.90;;;;;;5051301;28;19921;-66
2023/05/25 03:55:54;;;;;;;;;;;7.30;99.90;;;;;;5042470;28;20432;-66
2023/05/25 03:58:19;;;;;;;;;;;7.30;99.90;;;;;;5039490;28;19943;-66
2023/05/25 04:00:47;;;;;;;;;;;7.30;99.90;;;;;;5037494;28;20015;-66
2023/05/25 04:03:13;;;;;;;;;;;7.40;99.90;;;;;;5049869;28;20290;-66
2023/05/25 04:05:39;;;;;;;;;;;7.30;99.90;;;;;;5054691;28;20007;-66
2023/05/25 04:08:05;;;;;;;;;;;7.40;99.90;;;;;;5047906;28;19921;-66
2023/05/25 04:10:31;;;;;;;;;;;7.50;99.90;;;;;;5043187;28;19921;-66
2023/05/25 04:12:56;;;;;;;;;;;7.60;99.90;;;;;;5060661;28;19925;-66
2023/05/25 04:15:22;;;;;;;;;;;7.70;99.90;;;;;;5074375;28;19920;-66
2023/05/25 04:17:47;;;;;;;;;;;7.90;99.90;;;;;;5043086;28;19966;-66
2023/05/25 04:20:13;;;;;;;;;;;7.90;99.90;;;;;;5058852;28;19927;-66
2023/05/25 04:22:38;;;;;;;;;;;8.00;99.90;;;;;;5053791;28;19974;-66
2023/05/25 04:25:04;;;;;;;;;;;8.00;99.90;;;;;;5037971;28;19972;-65
2023/05/25 04:27:30;;;;;;;;;;;8.10;99.90;;;;;;5043303;28;19920;-66
2023/05/25 04:29:56;;;;;;;;;;;8.10;99.90;;;;;;5033378;28;19943;-66
2023/05/25 04:32:22;;;;;;;;;;;8.20;99.90;;;;;;5032672;28;19929;-65
2023/05/25 04:34:48;;;;;;;;;;;8.30;99.90;;;;;;5052647;28;20351;-65
2023/05/25 04:37:13;;;;;;;;;;;8.30;99.90;;;;;;5053720;28;19971;-65
2023/05/25 04:39:39;;;;;;;;;;;8.30;99.90;;;;;;5029395;28;20016;-65
2023/05/25 04:42:05;;;;;;;;;;;8.40;99.90;;;;;;5042785;28;19926;-65
2023/05/25 04:44:31;;;;;;;;;;;8.50;99.90;;;;;;5044495;28;19928;-65
2023/05/25 04:46:58;;;;;;;;;;;8.50;99.90;;;;;;5044930;28;19932;-66
2023/05/25 04:49:25;;;;;;;;;;;8.60;99.90;;;;;;5028111;28;20371;-66
2023/05/25 04:51:51;;;;;;;;;;;8.70;99.90;;;;;;5032669;28;19924;-65
2023/05/25 04:54:16;;;;;;;;;;;8.90;99.90;;;;;;5038262;28;19929;-67
2023/05/25 04:56:42;;;;;;;;;;;9.00;99.90;;;;;;5034474;28;19976;-66
2023/05/25 04:59:07;;;;;;;;;;;9.10;99.90;;;;;;5042608;28;19921;-66
2023/05/25 05:01:39;;;;;;;;;;;9.20;99.90;;;;;;5043148;28;19925;-65
2023/05/25 05:04:05;;;;;;;;;;;9.30;99.90;;;;;;5037720;28;19929;-66
2023/05/25 05:06:31;;;;;;;;;;;9.40;99.90;;;;;;5035088;28;19936;-67
2023/05/25 05:08:56;;;;;;;;;;;9.50;99.90;;;;;;5030572;28;19925;-66
2023/05/25 05:11:22;;;;;;;;;;;9.60;99.90;;;;;;5037266;28;20345;-67
2023/05/25 05:13:48;;;;;;;;;;;9.70;99.90;;;;;;5030129;28;19929;-67
2023/05/25 05:16:13;;;;;;;;;;;9.70;99.90;;;;;;5000647;28;19924;-67
2023/05/25 05:18:39;;;;;;;;;;;9.80;99.90;;;;;;5036161;28;19925;-67
2023/05/25 05:21:04;;;;;;;;;;;9.90;99.90;;;;;;5034392;28;19924;-67
2023/05/25 05:23:30;;;;;;;;;;;10.00;99.90;;;;;;5032880;28;19983;-67
2023/05/25 05:25:55;;;;;;;;;;;10.00;99.90;;;;;;5042670;28;20013;-68
2023/05/25 05:28:21;;;;;;;;;;;10.10;99.90;;;;;;5024089;28;19929;-68
2023/05/25 05:30:46;;;;;;;;;;;10.20;99.90;;;;;;5035341;28;19924;-69
2023/05/25 05:33:12;;;;;;;;;;;10.30;99.90;;;;;;5043109;28;20390;-67
2023/05/25 05:35:38;;;;;;;;;;;10.30;99.90;;;;;;5052987;28;19921;-68
2023/05/25 05:38:03;;;;;;;;;;;10.40;99.90;;;;;;5045527;28;19921;-66
2023/05/25 05:40:29;;;;;;;;;;;10.50;99.90;;;;;;5035054;28;20003;-66
2023/05/25 05:42:54;;;;;;;;;;;10.60;99.90;;;;;;5049062;28;19925;-66
2023/05/25 05:45:20;;;;;;;;;;;10.70;99.90;;;;;;5043844;28;19929;-66
2023/05/25 05:47:45;;;;;;;;;;;10.80;99.90;;;;;;5039190;28;19921;-67
2023/05/25 05:50:11;;;;;;;;;;;10.90;99.90;;;;;;5030830;28;19951;-67
2023/05/25 05:52:36;;;;;;;;;;;11.00;99.90;;;;;;5042971;28;19925;-67
2023/05/25 05:55:02;;;;;;;;;;;11.00;99.90;;;;;;5039209;28;19925;-66
2023/05/25 05:57:28;;;;;;;;;;;11.10;99.90;;;;;;5031225;28;20310;-67
2023/05/25 05:59:53;;;;;;;;;;;11.20;99.90;;;;;;5033164;28;19925;-68
2023/05/25 06:02:19;;;;;;;;;;;11.30;99.90;;;;;;5031810;28;20311;-68
2023/05/25 06:04:44;;;;;;;;;;;11.40;99.90;;;;;;5032441;28;20424;-68
2023/05/25 06:07:10;;;;;;;;;;;11.50;99.90;;;;;;5033232;28;19921;-67
2023/05/25 06:09:35;;;;;;;;;;;11.50;99.90;;;;;;5041685;28;19928;-68
2023/05/25 06:12:02;;;;;;;;;;;11.70;99.90;;;;;;5029254;28;19921;-68
2023/05/25 06:14:27;;;;;;;;;;;11.80;99.90;;;;;;5035963;28;20383;-68
2023/05/25 06:16:53;;;;;;;;;;;11.90;99.90;;;;;;5042067;28;19925;-68
2023/05/25 06:19:18;;;;;;;;;;;11.90;99.90;;;;;;5043493;28;20403;-68
2023/05/25 06:21:44;;;;;;;;;;;12.00;99.90;;;;;;5037053;28;19925;-68
2023/05/25 06:24:09;;;;;;;;;;;12.10;99.90;;;;;;5049224;28;20310;-68
2023/05/25 06:26:35;;;;;;;;;;;12.10;99.90;;;;;;5050521;28;19921;-68
2023/05/25 06:29:00;;;;;;;;;;;12.20;99.90;;;;;;5046994;28;19969;-68
2023/05/25 06:31:26;;;;;;;;;;;12.30;99.90;;;;;;5038883;28;20376;-68
2023/05/25 06:33:51;;;;;;;;;;;12.40;99.90;;;;;;5050411;28;19964;-68
2023/05/25 06:36:17;;;;;;;;;;;12.60;99.90;;;;;;5044984;28;19968;-68
2023/05/25 06:38:42;;;;;;;;;;;12.70;99.90;;;;;;5041157;28;19967;-68
2023/05/25 06:41:11;;;;;;;;;;;12.80;99.90;;;;;;5050315;28;20334;-68
2023/05/25 06:43:37;;;;;;;;;;;12.80;99.90;;;;;;5044047;28;19978;-68
2023/05/25 06:46:02;;;;;;;;;;;13.00;99.90;;;;;;5034629;28;20019;-68
2023/05/25 06:48:28;;;;;;;;;;;13.20;99.90;;;;;;5042383;28;20063;-68
2023/05/25 06:50:53;;;;;;;;;;;13.50;99.90;;;;;;5034769;28;19921;-69
2023/05/25 06:53:18;;;;;;;;;;;13.60;99.90;;;;;;5050414;28;20267;-68
2023/05/25 06:55:44;;;;;;;;;;;13.80;99.90;;;;;;5051436;28;19920;-68
2023/05/25 06:58:10;;;;;;;;;;;13.80;99.90;;;;;;5040250;28;20509;-68
2023/05/25 07:00:36;;;;;;;;;;;13.80;99.90;;;;;;5041290;28;20015;-68
2023/05/25 07:03:01;;;;;;;;;;;14.00;99.90;;;;;;5032443;28;20071;-69
2023/05/25 07:05:27;;;;;;;;;;;14.10;99.90;;;;;;5048044;28;19925;-69
2023/05/25 07:07:52;;;;;;;;;;;14.10;99.90;;;;;;5051333;28;19921;-68
2023/05/25 07:10:18;;;;;;;;;;;14.00;99.90;;;;;;5050534;28;19931;-68
2023/05/25 07:12:43;;;;;;;;;;;13.90;99.90;;;;;;5041900;28;20005;-69
2023/05/25 07:15:09;;;;;;;;;;;13.70;99.90;;;;;;5036376;28;19963;-68
2023/05/25 07:17:35;;;;;;;;;;;13.80;99.90;;;;;;5039450;28;20306;-68
2023/05/25 07:20:01;;;;;;;;;;;13.90;99.90;;;;;;5045539;28;20000;-69
2023/05/25 07:22:26;;;;;;;;;;;14.00;99.90;;;;;;5044892;28;19921;-68
2023/05/25 07:24:52;;;;;;;;;;;14.00;99.90;;;;;;5049809;28;20513;-68
2023/05/25 07:27:18;;;;;;;;;;;14.10;99.90;;;;;;5045727;28;19925;-68
2023/05/25 07:29:44;;;;;;;;;;;14.10;99.90;;;;;;5040372;28;19974;-69
2023/05/25 07:32:09;;;;;;;;;;;14.20;99.90;;;;;;5052085;23;20405;-67
2023/05/25 07:34:35;;;;;;;;;;;14.40;99.90;;;;;;5041795;28;19925;-67
2023/05/25 07:37:01;;;;;;;;;;;14.60;99.90;;;;;;5041798;28;20019;-66
2023/05/25 07:39:26;;;;;;;;;;;14.90;99.90;;;;;;5044112;28;19974;-67
2023/05/25 07:41:52;;;;;;;;;;;15.00;99.90;;;;;;5041327;28;19921;-67
2023/05/25 07:44:17;;;;;;;;;;;14.90;99.90;;;;;;5036377;28;19967;-67
2023/05/25 07:46:43;;;;;;;;;;;14.80;99.90;;;;;;5045854;28;19983;-67
2023/05/25 07:49:14;;;;;;;;;;;14.80;99.90;;;;;;5054727;28;20375;-67
2023/05/25 07:51:44;;;;;;;;;;;14.70;99.90;;;;;;5041282;28;19928;-67
2023/05/25 07:54:10;;;;;;;;;;;14.80;99.90;;;;;;5043085;28;19921;-67
2023/05/25 07:56:35;;;;;;;;;;;14.80;99.90;;;;;;5044745;28;19921;-67
2023/05/25 07:59:01;;;;;;;;;;;14.80;99.90;;;;;;5059997;28;19924;-67
2023/05/25 08:01:26;;;;;;;;;;;14.80;99.90;;;;;;5058102;28;19921;-67
2023/05/25 08:03:52;;;;;;;;;;;14.90;99.90;;;;;;5032709;28;19964;-67
2023/05/25 08:06:17;;;;;;;;;;;14.90;99.90;;;;;;5042504;28;19929;-67
2023/05/25 08:08:43;;;;;;;;;;;14.90;99.90;;;;;;5034369;28;20011;-67
2023/05/25 08:11:10;;;;;;;;;;;14.90;99.90;;;;;;5043648;28;19963;-67
2023/05/25 08:13:35;;;;;;;;;;;14.80;99.90;;;;;;5051693;28;20012;-67
2023/05/25 08:16:01;;;;;;;;;;;14.80;99.90;;;;;;5039633;28;20027;-67
2023/05/25 08:18:26;;;;;;;;;;;14.70;99.90;;;;;;5034206;28;19921;-66
2023/05/25 08:20:52;;;;;;;;;;;14.80;99.90;;;;;;5032090;28;19978;-67
2023/05/25 08:23:17;;;;;;;;;;;14.90;99.90;;;;;;5034016;28;19928;-67
2023/05/25 08:25:43;;;;;;;;;;;15.00;99.90;;;;;;5033588;28;19932;-67
2023/05/25 08:28:08;;;;;;;;;;;15.20;99.90;;;;;;5032199;28;19979;-67
2023/05/25 08:30:34;;;;;;;;;;;15.30;99.90;;;;;;5042104;28;19990;-67
2023/05/25 08:32:59;;;;;;;;;;;15.50;99.90;;;;;;5053311;28;19943;-67
2023/05/25 08:35:25;;;;;;;;;;;15.60;99.90;;;;;;5044196;28;19983;-67
2023/05/25 08:37:51;;;;;;;;;;;15.80;99.90;;;;;;5039187;28;19926;-67
2023/05/25 08:40:17;;;;;;;;;;;15.90;99.90;;;;;;5045393;28;19921;-67
2023/05/25 08:42:44;;;;;;;;;;;16.10;99.90;;;;;;5045601;28;19921;-67
2023/05/25 08:45:10;;;;;;;;;;;16.10;99.90;;;;;;5048248;28;19929;-67
2023/05/25 08:47:39;;;;;;;;;;;16.20;99.90;;;;;;5045371;28;19927;-67
2023/05/25 08:50:05;;;;;;;;;;;16.20;99.90;;;;;;5053335;28;19927;-67
2023/05/25 08:52:32;;;;;;;;;;;16.20;99.90;;;;;;5044167;28;19921;-67
2023/05/25 08:55:02;;;;;;;;;;;16.20;99.90;;;;;;5041136;28;19928;-67
2023/05/25 08:57:35;;;;;;;;;;;16.00;99.90;;;;;;5044528;28;19928;-67
2023/05/25 09:00:12;;;;;;;;;;;15.90;99.90;;;;;;5048832;28;20295;-67
2023/05/25 09:02:54;;;;;;;;;;;15.90;99.90;;;;;;5044974;28;20492;-67
2023/05/25 09:05:19;;;;;;;;;;;15.90;99.90;;;;;;5050254;28;20556;-67
2023/05/25 09:07:45;;;;;;;;;;;15.90;99.90;;;;;;5053257;28;19920;-67
2023/05/25 09:10:11;;;;;;;;;;;16.20;99.90;;;;;;5041922;28;20346;-67
2023/05/25 09:12:37;;;;;;;;;;;16.10;99.90;;;;;;5043548;28;19939;-67
2023/05/25 09:15:02;;;;;;;;;;;16.20;99.90;;;;;;5043511;28;19924;-67
2023/05/25 09:17:28;;;;;;;;;;;16.10;99.90;;;;;;5032872;28;19928;-67
2023/05/25 09:19:54;;;;;;;;;;;16.10;99.90;;;;;;5041100;28;19921;-67
2023/05/25 09:22:19;;;;;;;;;;;16.20;99.90;;;;;;5049919;28;19924;-67
2023/05/25 09:24:45;;;;;;;;;;;16.30;99.90;;;;;;5039675;28;19960;-67
2023/05/25 09:27:11;;;;;;;;;;;16.30;99.90;;;;;;5048021;28;19999;-67
2023/05/25 09:29:37;;;;;;;;;;;16.20;99.90;;;;;;5044366;28;19929;-67
2023/05/25 09:32:05;;;;;;;;;;;16.00;99.90;;;;;;5048548;28;20003;-67
2023/05/25 09:34:34;;;;;;;;;;;15.90;99.90;;;;;;5048066;28;21088;-67
2023/05/25 09:37:00;;;;;;;;;;;15.80;99.90;;;;;;5044316;28;20364;-67
2023/05/25 09:39:25;;;;;;;;;;;16.00;99.90;;;;;;5065263;28;19921;-67
2023/05/25 09:41:51;;;;;;;;;;;16.00;99.90;;;;;;5056793;28;19947;-66
2023/05/25 09:44:17;;;;;;;;;;;16.30;99.90;;;;;;5037554;28;19925;-67
2023/05/25 09:46:43;;;;;;;;;;;16.40;99.90;;;;;;5046658;28;19928;-67
2023/05/25 09:49:09;;;;;;;;;;;16.30;99.60;;;;;;5043621;28;19931;-67
2023/05/25 09:51:35;;;;;;;;;;;16.30;99.90;;;;;;5041742;28;19921;-67
2023/05/25 09:54:07;;;;;;;;;;;16.40;99.90;;;;;;5041009;28;20378;-67
2023/05/25 09:56:32;;;;;;;;;;;16.50;99.90;;;;;;5032816;28;19921;-67
2023/05/25 09:58:58;;;;;;;;;;;16.50;99.90;;;;;;5031703;28;20066;-67
2023/05/25 10:01:24;;;;;;;;;;;16.50;99.90;;;;;;5045434;28;19920;-67
2023/05/25 10:03:50;;;;;;;;;;;16.60;99.90;;;;;;5044832;28;19924;-66
2023/05/25 10:06:16;;;;;;;;;;;16.80;99.90;;;;;;5049611;28;20848;-68
2023/05/25 10:08:42;;;;;;;;;;;17.20;99.90;;;;;;5038700;28;19927;-68
2023/05/25 10:11:09;;;;;;;;;;;17.60;98.20;;;;;;5042877;28;19920;-67
2023/05/25 10:13:35;;;;;;;;;;;17.90;99.60;;;;;;5051368;28;19920;-68
2023/05/25 10:16:00;;;;;;;;;;;17.70;98.20;;;;;;5038577;28;20424;-68
2023/05/25 10:18:27;;;;;;;;;;;17.20;97.10;;;;;;5039859;28;19980;-68
2023/05/25 10:20:58;;;;;;;;;;;16.90;98.40;;;;;;5052397;28;20066;-68
2023/05/25 10:23:23;;;;;;;;;;;16.70;97.70;;;;;;5041920;28;19921;-68
2023/05/25 10:25:53;;;;;;;;;;;16.50;98.10;;;;;;5046807;28;19929;-68
2023/05/25 10:28:22;;;;;;;;;;;16.30;97.50;;;;;;5048866;28;19924;-67
2023/05/25 10:30:48;;;;;;;;;;;16.80;98.60;;;;;;5047746;28;19971;-67
2023/05/25 10:33:14;;;;;;;;;;;16.90;97.10;;;;;;5035092;28;19921;-67
2023/05/25 10:35:41;;;;;;;;;;;16.90;99.20;;;;;;5046588;28;19932;-68
2023/05/25 10:38:07;;;;;;;;;;;16.80;96.60;;;;;;5045855;28;19928;-68
2023/05/25 10:40:33;;;;;;;;;;;17.00;98.90;;;;;;5045311;28;19921;-67
2023/05/25 10:42:59;;;;;;;;;;;17.20;98.10;;;;;;5041743;28;19921;-67
2023/05/25 10:45:25;;;;;;;;;;;17.00;97.40;;;;;;5040644;28;19932;-68
2023/05/25 10:47:51;;;;;;;;;;;16.80;96.90;;;;;;5043112;28;19921;-68
2023/05/25 10:50:25;;;;;;;;;;;16.60;97.30;;;;;;5051083;28;19920;-67
2023/05/25 10:53:02;;;;;;;;;;;16.70;97.50;;;;;;5034934;28;20477;-68
2023/05/25 10:55:39;;;;;;;;;;;17.00;96.90;;;;;;5046205;28;19929;-67
2023/05/25 10:58:09;;;;;;;;;;;17.60;99.20;;;;;;5038237;28;20452;-68
2023/05/25 11:00:35;;;;;;;;;;;17.50;96.60;;;;;;5057591;28;19956;-68
2023/05/25 11:03:00;;;;;;;;;;;17.40;96.90;;;;;;5033993;28;19971;-67
2023/05/25 11:05:26;;;;;;;;;;;17.50;97.50;;;;;;5047774;28;19935;-68
2023/05/25 11:07:55;;;;;;;;;;;17.20;96.60;;;;;;5044970;28;20448;-68
2023/05/25 11:10:40;;;;;;;;;;;17.20;97.00;;;;;;5033563;28;20370;-68
2023/05/25 11:13:21;;;;;;;;;;;17.50;97.60;;;;;;5045603;28;19927;-67
2023/05/25 11:16:06;;;;;;;;;;;18.10;97.90;;;;;;5044372;28;19921;-68
2023/05/25 11:18:39;;;;;;;;;;;18.30;98.00;;;;;;5053319;28;20279;-67
2023/05/25 11:21:15;;;;;;;;;;;17.90;95.30;;;;;;5051492;28;19921;-67
2023/05/25 11:23:57;;;;;;;;;;;17.60;95.10;;;;;;5042952;28;19979;-67
2023/05/25 11:26:27;;;;;;;;;;;17.10;95.20;;;;;;5052914;28;19928;-67
2023/05/25 11:28:53;;;;;;;;;;;17.00;97.00;;;;;;5050845;28;20000;-67
2023/05/25 11:31:29;;;;;;;;;;;17.30;96.90;;;;;;5039343;28;19928;-67
2023/05/25 11:33:59;;;;;;;;;;;17.70;96.50;;;;;;5040508;28;20018;-68
2023/05/25 11:36:26;;;;;;;;;;;18.00;94.40;;;;;;5054500;28;19960;-68
2023/05/25 11:38:53;;;;;;;;;;;18.00;96.20;;;;;;5046949;28;20375;-68
2023/05/25 11:41:20;;;;;;;;;;;17.50;94.20;;;;;;5053338;28;20019;-66
2023/05/25 11:43:50;;;;;;;;;;;17.60;95.80;;;;;;5053699;28;19972;-67
2023/05/25 11:46:18;;;;;;;;;;;17.80;96.00;;;;;;5049402;28;19967;-68
2023/05/25 11:48:53;;;;;;;;;;;18.20;95.20;;;;;;5036791;28;19921;-67
2023/05/25 11:51:23;;;;;;;;;;;18.60;95.60;;;;;;5033422;28;19925;-67
2023/05/25 11:53:48;;;;;;;;;;;18.30;93.60;;;;;;5034459;28;19921;-67
2023/05/25 11:56:15;;;;;;;;;;;17.60;93.10;;;;;;5039085;28;19921;-67
2023/05/25 11:58:43;;;;;;;;;;;17.70;94.10;;;;;;5049025;28;20367;-67
2023/05/25 12:01:13;;;;;;;;;;;18.00;94.50;;;;;;5057875;28;19967;-68
2023/05/25 12:03:38;;;;;;;;;;;17.70;95.40;;;;;;5042781;28;19921;-67
2023/05/25 12:06:04;;;;;;;;;;;17.70;96.00;;;;;;5046149;28;20357;-67
2023/05/25 12:08:33;;;;;;;;;;;17.50;94.90;;;;;;5033215;28;19972;-67
2023/05/25 12:10:59;;;;;;;;;;;17.70;94.70;;;;;;5033709;28;20398;-68
2023/05/25 12:13:25;;;;;;;;;;;18.10;96.50;;;;;;5039073;28;19921;-67
2023/05/25 12:15:51;;;;;;;;;;;18.40;96.60;;;;;;5035018;28;19921;-67
2023/05/25 12:18:16;;;;;;;;;;;18.90;96.80;;;;;;5047851;28;20355;-67
2023/05/25 12:20:42;;;;;;;;;;;19.10;95.20;;;;;;5036118;28;20012;-68
2023/05/25 12:23:08;;;;;;;;;;;19.10;95.30;;;;;;5041369;28;19921;-65
2023/05/25 12:25:33;;;;;;;;;;;19.00;95.00;;;;;;5046331;28;19933;-66
2023/05/25 12:28:08;;;;;;;;;;;19.20;96.00;;;;;;5048197;28;19920;-66
2023/05/25 12:30:33;;;;;;;;;;;18.90;93.60;;;;;;5034422;28;19921;-66
2023/05/25 12:33:00;;;;;;;;;;;18.80;93.20;;;;;;5032158;28;20094;-66
2023/05/25 12:35:27;;;;;;;;;;;18.80;94.60;;;;;;5042669;28;20463;-66
2023/05/25 12:38:08;;;;;;;;;;;18.70;95.00;;;;;;5052616;28;19921;-66
2023/05/25 12:40:34;;;;;;;;;;;18.70;94.90;;;;;;5054577;28;19973;-67
2023/05/25 12:42:59;;;;;;;;;;;18.40;94.20;;;;;;5049690;28;19936;-66
2023/05/25 12:45:25;;;;;;;;;;;18.40;93.70;;;;;;5041114;28;20298;-66
2023/05/25 12:47:51;;;;;;;;;;;18.50;94.10;;;;;;5046033;28;19921;-67
2023/05/25 12:50:17;;;;;;;;;;;18.60;94.10;;;;;;5037256;28;20303;-66
2023/05/25 12:52:43;;;;;;;;;;;18.90;93.60;;;;;;5035876;28;19928;-65
2023/05/25 12:55:25;;;;;;;;;;;19.10;93.90;;;;;;5043592;28;19921;-65
2023/05/25 12:57:51;;;;;;;;;;;19.10;94.40;;;;;;5040021;28;20046;-65
2023/05/25 13:00:18;;;;;;;;;;;19.30;94.40;;;;;;5043843;28;20406;-66
2023/05/25 13:02:44;;;;;;;;;;;19.10;92.60;;;;;;5053075;28;19928;-66
2023/05/25 13:05:16;;;;;;;;;;;19.30;93.60;;;;;;5041513;28;20303;-67
2023/05/25 13:07:42;;;;;;;;;;;19.20;93.10;;;;;;5037942;28;20025;-66
2023/05/25 13:10:08;;;;;;;;;;;19.40;93.60;;;;;;5045997;28;19920;-66
2023/05/25 13:12:34;;;;;;;;;;;19.50;92.90;;;;;;5052541;28;19928;-65
2023/05/25 13:14:59;;;;;;;;;;;19.60;93.10;;;;;;5047823;28;19967;-67
2023/05/25 13:17:25;;;;;;;;;;;19.50;92.10;;;;;;5050876;28;19921;-67
2023/05/25 13:19:50;;;;;;;;;;;19.50;92.20;;;;;;5045592;28;19931;-65
2023/05/25 13:22:16;;;;;;;;;;;19.50;93.10;;;;;;5041612;28;19921;-66
2023/05/25 13:24:41;;;;;;;;;;;19.60;92.30;;;;;;5053605;28;20015;-65
2023/05/25 13:27:07;;;;;;;;;;;19.40;91.50;;;;;;5039502;28;20290;-65
2023/05/25 13:29:32;;;;;;;;;;;19.40;91.70;;;;;;5042688;28;19964;-65
2023/05/25 13:31:58;;;;;;;;;;;19.50;92.30;;;;;;5047010;28;19924;-66
2023/05/25 13:34:23;;;;;;;;;;;19.50;92.10;;;;;;5053151;28;19932;-66
2023/05/25 13:36:49;;;;;;;;;;;19.60;92.80;;;;;;5035776;28;20391;-66
2023/05/25 13:39:14;;;;;;;;;;;19.50;92.70;;;;;;5050122;28;19921;-66
2023/05/25 13:41:40;;;;;;;;;;;19.30;91.40;;;;;;5041020;28;19925;-66
2023/05/25 13:44:06;;;;;;;;;;;19.30;92.00;;;;;;5040161;28;19921;-66
2023/05/25 13:46:31;;;;;;;;;;;19.60;92.40;;;;;;5024914;28;20307;-66
2023/05/25 13:48:57;;;;;;;;;;;19.60;93.50;;;;;;5052776;28;19921;-67
2023/05/25 13:51:22;;;;;;;;;;;19.80;93.40;;;;;;5051266;28;20336;-66
2023/05/25 13:53:48;;;;;;;;;;;19.90;91.70;;;;;;5048629;28;19980;-66
2023/05/25 13:56:14;;;;;;;;;;;19.60;90.70;;;;;;5044408;28;20390;-66
2023/05/25 13:58:47;;;;;;;;;;;19.70;91.50;;;;;;5107570;27;19912;-65
2023/05/25 14:01:12;;;;;;;;;;;19.40;91.40;;;;;;5092814;28;20014;-67
2023/05/25 14:03:38;;;;;;;;;;;19.40;88.90;;;;;;5108567;28;19920;-66
2023/05/25 14:06:04;;;;;;;;;;;19.60;87.90;;;;;;5109694;28;19920;-67
2023/05/25 14:08:30;;;;;;;;;;;19.50;89.80;;;;;;5097971;28;20019;-67
2023/05/25 14:10:55;;;;;;;;;;;19.60;87.10;;;;;;5109544;28;20057;-66
2023/05/25 14:13:21;;;;;;;;;;;19.70;91.60;;;;;;5091114;28;20317;-66
2023/05/25 14:15:46;;;;;;;;;;;19.80;88.30;;;;;;5085314;28;19964;-66
2023/05/25 14:18:12;;;;;;;;;;;20.10;88.20;;;;;;5101304;28;19977;-66